sensor_id;sensor_type;location;lat;lon;timestamp;P1;durP1;ratioP1;P2;durP2;ratioP2
72569;SDS011;60594;50.204;8.844;2024-02-23T00:00:56;1.02;;;0.60;;
72569;SDS011;60594;50.204;8.844;2024-02-23T00:03:41;1.17;;;0.43;;
72569;SDS011;60594;50.204;8.844;2024-02-23T00:06:26;0.63;;;0.45;;
72569;SDS011;60594;50.204;8.844;2024-02-23T00:09:12;1.27;;;0.60;;
72569;SDS011;60594;50.204;8.844;2024-02-23T00:11:57;1.33;;;0.40;;
72569;SDS011;60594;50.204;8.844;2024-02-23T00:14:42;2.25;;;0.60;;
72569;SDS011;60594;50.204;8.844;2024-02-23T00:17:27;1.30;;;0.63;;
72569;SDS011;60594;50.204;8.844;2024-02-23T00:20:12;1.20;;;0.65;;
72569;SDS011;60594;50.204;8.844;2024-02-23T00:22:57;0.57;;;0.30;;
72569;SDS011;60594;50.204;8.844;2024-02-23T00:25:42;1.63;;;0.60;;
72569;SDS011;60594;50.204;8.844;2024-02-23T00:28:27;0.55;;;0.30;;
72569;SDS011;60594;50.204;8.844;2024-02-23T00:31:12;1.40;;;0.70;;
72569;SDS011;60594;50.204;8.844;2024-02-23T00:33:57;1.77;;;0.52;;
72569;SDS011;60594;50.204;8.844;2024-02-23T00:36:42;1.92;;;0.63;;
72569;SDS011;60594;50.204;8.844;2024-02-23T00:39:29;2.45;;;0.80;;
72569;SDS011;60594;50.204;8.844;2024-02-23T00:42:15;3.45;;;0.73;;
72569;SDS011;60594;50.204;8.844;2024-02-23T00:45:01;1.10;;;0.60;;
72569;SDS011;60594;50.204;8.844;2024-02-23T00:47:46;0.90;;;0.57;;
72569;SDS011;60594;50.204;8.844;2024-02-23T00:50:32;1.80;;;0.50;;
72569;SDS011;60594;50.204;8.844;2024-02-23T00:53:16;2.47;;;0.60;;
72569;SDS011;60594;50.204;8.844;2024-02-23T00:56:02;4.10;;;0.50;;
72569;SDS011;60594;50.204;8.844;2024-02-23T00:58:47;1.40;;;0.50;;
72569;SDS011;60594;50.204;8.844;2024-02-23T01:01:32;2.72;;;0.85;;
72569;SDS011;60594;50.204;8.844;2024-02-23T01:04:17;1.27;;;0.52;;
72569;SDS011;60594;50.204;8.844;2024-02-23T01:07:02;1.63;;;0.52;;
72569;SDS011;60594;50.204;8.844;2024-02-23T01:09:47;1.83;;;0.28;;
72569;SDS011;60594;50.204;8.844;2024-02-23T01:12:32;0.63;;;0.20;;
72569;SDS011;60594;50.204;8.844;2024-02-23T01:15:18;0.60;;;0.30;;
72569;SDS011;60594;50.204;8.844;2024-02-23T01:18:03;2.95;;;0.60;;
72569;SDS011;60594;50.204;8.844;2024-02-23T01:20:50;1.15;;;0.60;;
72569;SDS011;60594;50.204;8.844;2024-02-23T01:23:35;1.88;;;0.70;;
72569;SDS011;60594;50.204;8.844;2024-02-23T01:26:19;1.15;;;0.50;;
72569;SDS011;60594;50.204;8.844;2024-02-23T01:29:05;0.32;;;0.30;;
72569;SDS011;60594;50.204;8.844;2024-02-23T01:31:50;1.05;;;0.70;;
72569;SDS011;60594;50.204;8.844;2024-02-23T01:34:36;1.05;;;0.40;;
72569;SDS011;60594;50.204;8.844;2024-02-23T01:37:21;2.45;;;0.50;;
72569;SDS011;60594;50.204;8.844;2024-02-23T01:40:06;1.70;;;0.60;;
72569;SDS011;60594;50.204;8.844;2024-02-23T01:43:01;1.20;;;0.63;;
72569;SDS011;60594;50.204;8.844;2024-02-23T01:45:49;1.08;;;0.47;;
72569;SDS011;60594;50.204;8.844;2024-02-23T01:48:34;0.65;;;0.40;;
72569;SDS011;60594;50.204;8.844;2024-02-23T01:51:19;1.75;;;0.57;;
72569;SDS011;60594;50.204;8.844;2024-02-23T01:54:05;1.08;;;0.35;;
72569;SDS011;60594;50.204;8.844;2024-02-23T01:56:51;3.88;;;0.63;;
72569;SDS011;60594;50.204;8.844;2024-02-23T01:59:37;3.20;;;0.63;;
72569;SDS011;60594;50.204;8.844;2024-02-23T02:02:23;3.10;;;0.43;;
72569;SDS011;60594;50.204;8.844;2024-02-23T02:05:08;0.93;;;0.63;;
72569;SDS011;60594;50.204;8.844;2024-02-23T02:07:53;2.03;;;0.73;;
72569;SDS011;60594;50.204;8.844;2024-02-23T02:10:43;0.73;;;0.45;;
72569;SDS011;60594;50.204;8.844;2024-02-23T02:13:30;1.67;;;0.85;;
72569;SDS011;60594;50.204;8.844;2024-02-23T02:16:15;0.85;;;0.30;;
72569;SDS011;60594;50.204;8.844;2024-02-23T02:19:00;1.50;;;0.60;;
72569;SDS011;60594;50.204;8.844;2024-02-23T02:21:45;1.23;;;0.43;;
72569;SDS011;60594;50.204;8.844;2024-02-23T02:24:30;3.08;;;0.52;;
72569;SDS011;60594;50.204;8.844;2024-02-23T02:27:15;0.63;;;0.43;;
72569;SDS011;60594;50.204;8.844;2024-02-23T02:30:01;0.52;;;0.28;;
72569;SDS011;60594;50.204;8.844;2024-02-23T02:32:45;2.15;;;0.50;;
72569;SDS011;60594;50.204;8.844;2024-02-23T02:35:30;0.63;;;0.22;;
72569;SDS011;60594;50.204;8.844;2024-02-23T02:38:15;0.43;;;0.38;;
72569;SDS011;60594;50.204;8.844;2024-02-23T02:41:00;0.55;;;0.20;;
72569;SDS011;60594;50.204;8.844;2024-02-23T02:43:45;0.57;;;0.28;;
72569;SDS011;60594;50.204;8.844;2024-02-23T02:46:30;0.75;;;0.32;;
72569;SDS011;60594;50.204;8.844;2024-02-23T02:49:15;0.47;;;0.40;;
72569;SDS011;60594;50.204;8.844;2024-02-23T02:52:00;1.15;;;0.40;;
72569;SDS011;60594;50.204;8.844;2024-02-23T02:54:46;1.23;;;0.40;;
72569;SDS011;60594;50.204;8.844;2024-02-23T02:57:31;1.48;;;0.32;;
72569;SDS011;60594;50.204;8.844;2024-02-23T03:00:15;0.45;;;0.35;;
72569;SDS011;60594;50.204;8.844;2024-02-23T03:03:00;0.90;;;0.45;;
72569;SDS011;60594;50.204;8.844;2024-02-23T03:05:45;1.30;;;0.47;;
72569;SDS011;60594;50.204;8.844;2024-02-23T03:08:31;0.30;;;0.30;;
72569;SDS011;60594;50.204;8.844;2024-02-23T03:11:15;2.28;;;0.40;;
72569;SDS011;60594;50.204;8.844;2024-02-23T03:14:01;1.27;;;0.47;;
72569;SDS011;60594;50.204;8.844;2024-02-23T03:16:45;1.02;;;0.40;;
72569;SDS011;60594;50.204;8.844;2024-02-23T03:19:32;1.88;;;0.65;;
72569;SDS011;60594;50.204;8.844;2024-02-23T03:22:17;1.30;;;0.43;;
72569;SDS011;60594;50.204;8.844;2024-02-23T03:25:03;1.98;;;0.63;;
72569;SDS011;60594;50.204;8.844;2024-02-23T03:27:57;1.30;;;0.63;;
72569;SDS011;60594;50.204;8.844;2024-02-23T03:30:42;0.55;;;0.40;;
72569;SDS011;60594;50.204;8.844;2024-02-23T03:33:27;2.00;;;0.60;;
72569;SDS011;60594;50.204;8.844;2024-02-23T03:36:12;0.80;;;0.45;;
72569;SDS011;60594;50.204;8.844;2024-02-23T03:38:57;1.33;;;0.63;;
72569;SDS011;60594;50.204;8.844;2024-02-23T03:41:42;3.03;;;0.52;;
72569;SDS011;60594;50.204;8.844;2024-02-23T03:44:27;2.63;;;0.90;;
72569;SDS011;60594;50.204;8.844;2024-02-23T03:47:12;1.25;;;0.38;;
72569;SDS011;60594;50.204;8.844;2024-02-23T03:49:57;0.82;;;0.40;;
72569;SDS011;60594;50.204;8.844;2024-02-23T03:52:42;4.75;;;0.65;;
72569;SDS011;60594;50.204;8.844;2024-02-23T03:55:27;1.13;;;0.47;;
72569;SDS011;60594;50.204;8.844;2024-02-23T03:58:12;0.70;;;0.40;;
72569;SDS011;60594;50.204;8.844;2024-02-23T04:00:57;1.73;;;0.50;;
72569;SDS011;60594;50.204;8.844;2024-02-23T04:03:42;1.35;;;0.57;;
72569;SDS011;60594;50.204;8.844;2024-02-23T04:06:27;1.27;;;0.57;;
72569;SDS011;60594;50.204;8.844;2024-02-23T04:09:12;0.73;;;0.50;;
72569;SDS011;60594;50.204;8.844;2024-02-23T04:11:57;1.08;;;0.50;;
72569;SDS011;60594;50.204;8.844;2024-02-23T04:14:42;1.55;;;0.73;;
72569;SDS011;60594;50.204;8.844;2024-02-23T04:17:27;1.08;;;0.43;;
72569;SDS011;60594;50.204;8.844;2024-02-23T04:20:12;2.50;;;0.70;;
72569;SDS011;60594;50.204;8.844;2024-02-23T04:22:58;2.95;;;0.68;;
72569;SDS011;60594;50.204;8.844;2024-02-23T04:25:43;0.82;;;0.60;;
72569;SDS011;60594;50.204;8.844;2024-02-23T04:28:28;3.85;;;0.60;;
72569;SDS011;60594;50.204;8.844;2024-02-23T04:31:15;5.03;;;0.75;;
72569;SDS011;60594;50.204;8.844;2024-02-23T04:34:00;1.00;;;0.43;;
72569;SDS011;60594;50.204;8.844;2024-02-23T04:36:46;5.50;;;0.75;;
72569;SDS011;60594;50.204;8.844;2024-02-23T04:39:30;1.67;;;0.70;;
72569;SDS011;60594;50.204;8.844;2024-02-23T04:42:15;4.10;;;0.60;;
72569;SDS011;60594;50.204;8.844;2024-02-23T04:45:00;1.52;;;0.55;;
72569;SDS011;60594;50.204;8.844;2024-02-23T04:47:45;2.22;;;0.80;;
72569;SDS011;60594;50.204;8.844;2024-02-23T04:50:32;1.80;;;0.70;;
72569;SDS011;60594;50.204;8.844;2024-02-23T04:53:18;2.65;;;0.75;;
72569;SDS011;60594;50.204;8.844;2024-02-23T04:56:04;4.57;;;0.90;;
72569;SDS011;60594;50.204;8.844;2024-02-23T04:58:49;2.90;;;0.90;;
72569;SDS011;60594;50.204;8.844;2024-02-23T05:01:36;2.65;;;0.73;;
72569;SDS011;60594;50.204;8.844;2024-02-23T05:04:21;2.03;;;0.65;;
72569;SDS011;60594;50.204;8.844;2024-02-23T05:07:06;1.83;;;0.93;;
72569;SDS011;60594;50.204;8.844;2024-02-23T05:09:51;2.65;;;0.90;;
72569;SDS011;60594;50.204;8.844;2024-02-23T05:12:36;2.85;;;0.93;;
72569;SDS011;60594;50.204;8.844;2024-02-23T05:15:21;3.05;;;0.70;;
72569;SDS011;60594;50.204;8.844;2024-02-23T05:18:06;3.08;;;1.13;;
72569;SDS011;60594;50.204;8.844;2024-02-23T05:20:51;2.10;;;0.93;;
72569;SDS011;60594;50.204;8.844;2024-02-23T05:23:36;3.60;;;0.93;;
72569;SDS011;60594;50.204;8.844;2024-02-23T05:26:21;3.58;;;1.10;;
72569;SDS011;60594;50.204;8.844;2024-02-23T05:29:06;1.67;;;1.30;;
72569;SDS011;60594;50.204;8.844;2024-02-23T05:31:51;2.25;;;1.00;;
72569;SDS011;60594;50.204;8.844;2024-02-23T05:34:37;1.52;;;0.75;;
72569;SDS011;60594;50.204;8.844;2024-02-23T05:37:22;1.77;;;0.68;;
72569;SDS011;60594;50.204;8.844;2024-02-23T05:40:07;3.20;;;1.25;;
72569;SDS011;60594;50.204;8.844;2024-02-23T05:42:55;2.40;;;0.85;;
72569;SDS011;60594;50.204;8.844;2024-02-23T05:45:40;3.38;;;1.00;;
72569;SDS011;60594;50.204;8.844;2024-02-23T05:48:25;1.77;;;0.80;;
72569;SDS011;60594;50.204;8.844;2024-02-23T05:51:10;1.98;;;0.80;;
72569;SDS011;60594;50.204;8.844;2024-02-23T05:53:55;1.85;;;0.77;;
72569;SDS011;60594;50.204;8.844;2024-02-23T05:56:40;2.70;;;0.90;;
72569;SDS011;60594;50.204;8.844;2024-02-23T05:59:25;3.17;;;1.00;;
72569;SDS011;60594;50.204;8.844;2024-02-23T06:02:10;2.65;;;0.85;;
72569;SDS011;60594;50.204;8.844;2024-02-23T06:04:54;2.20;;;0.80;;
72569;SDS011;60594;50.204;8.844;2024-02-23T06:07:40;4.75;;;0.88;;
72569;SDS011;60594;50.204;8.844;2024-02-23T06:10:25;1.73;;;0.65;;
72569;SDS011;60594;50.204;8.844;2024-02-23T06:13:11;1.27;;;0.60;;
72569;SDS011;60594;50.204;8.844;2024-02-23T06:15:55;2.28;;;0.80;;
72569;SDS011;60594;50.204;8.844;2024-02-23T06:18:40;3.70;;;0.90;;
72569;SDS011;60594;50.204;8.844;2024-02-23T06:21:26;1.17;;;0.63;;
72569;SDS011;60594;50.204;8.844;2024-02-23T06:24:11;2.85;;;0.93;;
72569;SDS011;60594;50.204;8.844;2024-02-23T06:26:56;1.40;;;0.82;;
72569;SDS011;60594;50.204;8.844;2024-02-23T06:29:42;3.88;;;0.95;;
72569;SDS011;60594;50.204;8.844;2024-02-23T06:32:27;6.97;;;1.00;;
72569;SDS011;60594;50.204;8.844;2024-02-23T06:35:12;3.50;;;0.88;;
72569;SDS011;60594;50.204;8.844;2024-02-23T06:37:57;2.90;;;0.70;;
72569;SDS011;60594;50.204;8.844;2024-02-23T06:40:42;2.90;;;0.90;;
72569;SDS011;60594;50.204;8.844;2024-02-23T06:43:27;1.88;;;0.80;;
72569;SDS011;60594;50.204;8.844;2024-02-23T06:46:12;4.07;;;0.90;;
72569;SDS011;60594;50.204;8.844;2024-02-23T06:48:57;2.47;;;0.65;;
72569;SDS011;60594;50.204;8.844;2024-02-23T06:51:42;1.92;;;0.80;;
72569;SDS011;60594;50.204;8.844;2024-02-23T06:54:28;2.60;;;1.00;;
72569;SDS011;60594;50.204;8.844;2024-02-23T06:57:13;3.80;;;0.93;;
72569;SDS011;60594;50.204;8.844;2024-02-23T06:59:58;4.28;;;1.25;;
72569;SDS011;60594;50.204;8.844;2024-02-23T07:02:43;2.13;;;0.80;;
72569;SDS011;60594;50.204;8.844;2024-02-23T07:05:28;4.30;;;1.00;;
72569;SDS011;60594;50.204;8.844;2024-02-23T07:08:13;2.30;;;0.90;;
72569;SDS011;60594;50.204;8.844;2024-02-23T07:10:59;2.22;;;0.63;;
72569;SDS011;60594;50.204;8.844;2024-02-23T07:13:43;3.85;;;0.68;;
72569;SDS011;60594;50.204;8.844;2024-02-23T07:16:29;2.95;;;0.90;;
72569;SDS011;60594;50.204;8.844;2024-02-23T07:19:14;2.38;;;1.13;;
72569;SDS011;60594;50.204;8.844;2024-02-23T07:21:59;3.95;;;0.90;;
72569;SDS011;60594;50.204;8.844;2024-02-23T07:24:44;4.13;;;0.80;;
72569;SDS011;60594;50.204;8.844;2024-02-23T07:27:29;3.63;;;1.10;;
72569;SDS011;60594;50.204;8.844;2024-02-23T07:30:16;7.50;;;1.90;;
72569;SDS011;60594;50.204;8.844;2024-02-23T07:33:01;2.25;;;0.70;;
72569;SDS011;60594;50.204;8.844;2024-02-23T07:35:46;2.08;;;0.65;;
72569;SDS011;60594;50.204;8.844;2024-02-23T07:38:31;6.43;;;0.93;;
72569;SDS011;60594;50.204;8.844;2024-02-23T07:41:16;1.48;;;0.70;;
72569;SDS011;60594;50.204;8.844;2024-02-23T07:44:04;2.47;;;0.90;;
72569;SDS011;60594;50.204;8.844;2024-02-23T07:46:48;2.28;;;0.80;;
72569;SDS011;60594;50.204;8.844;2024-02-23T07:49:33;3.53;;;1.02;;
72569;SDS011;60594;50.204;8.844;2024-02-23T07:52:18;2.17;;;0.70;;
72569;SDS011;60594;50.204;8.844;2024-02-23T07:55:04;3.20;;;0.90;;
72569;SDS011;60594;50.204;8.844;2024-02-23T07:57:49;2.92;;;0.80;;
72569;SDS011;60594;50.204;8.844;2024-02-23T08:00:34;4.20;;;0.95;;
72569;SDS011;60594;50.204;8.844;2024-02-23T08:03:22;2.45;;;0.65;;
72569;SDS011;60594;50.204;8.844;2024-02-23T08:06:07;3.00;;;0.88;;
72569;SDS011;60594;50.204;8.844;2024-02-23T08:08:52;1.67;;;0.60;;
72569;SDS011;60594;50.204;8.844;2024-02-23T08:11:38;4.85;;;0.93;;
72569;SDS011;60594;50.204;8.844;2024-02-23T08:14:23;2.40;;;0.70;;
72569;SDS011;60594;50.204;8.844;2024-02-23T08:17:08;1.30;;;0.70;;
72569;SDS011;60594;50.204;8.844;2024-02-23T08:19:53;2.00;;;0.60;;
72569;SDS011;60594;50.204;8.844;2024-02-23T08:22:38;3.67;;;0.90;;
72569;SDS011;60594;50.204;8.844;2024-02-23T08:25:23;3.30;;;0.95;;
72569;SDS011;60594;50.204;8.844;2024-02-23T08:28:08;1.95;;;0.80;;
72569;SDS011;60594;50.204;8.844;2024-02-23T08:30:53;3.45;;;0.80;;
72569;SDS011;60594;50.204;8.844;2024-02-23T08:33:38;2.47;;;0.95;;
72569;SDS011;60594;50.204;8.844;2024-02-23T08:36:23;2.92;;;0.68;;
72569;SDS011;60594;50.204;8.844;2024-02-23T08:39:08;1.05;;;0.68;;
72569;SDS011;60594;50.204;8.844;2024-02-23T08:41:53;1.45;;;0.55;;
72569;SDS011;60594;50.204;8.844;2024-02-23T08:44:39;4.85;;;0.80;;
72569;SDS011;60594;50.204;8.844;2024-02-23T08:47:25;3.97;;;0.60;;
72569;SDS011;60594;50.204;8.844;2024-02-23T08:50:16;1.95;;;0.50;;
72569;SDS011;60594;50.204;8.844;2024-02-23T08:53:01;5.10;;;0.95;;
72569;SDS011;60594;50.204;8.844;2024-02-23T08:55:47;1.52;;;0.65;;
72569;SDS011;60594;50.204;8.844;2024-02-23T08:58:31;5.28;;;0.70;;
72569;SDS011;60594;50.204;8.844;2024-02-23T09:01:16;2.50;;;0.88;;
72569;SDS011;60594;50.204;8.844;2024-02-23T09:04:01;2.88;;;0.98;;
72569;SDS011;60594;50.204;8.844;2024-02-23T09:06:47;3.00;;;0.90;;
72569;SDS011;60594;50.204;8.844;2024-02-23T09:09:34;2.05;;;0.70;;
72569;SDS011;60594;50.204;8.844;2024-02-23T09:12:19;1.58;;;0.57;;
72569;SDS011;60594;50.204;8.844;2024-02-23T09:15:04;2.83;;;0.70;;
72569;SDS011;60594;50.204;8.844;2024-02-23T09:17:50;3.25;;;0.80;;
72569;SDS011;60594;50.204;8.844;2024-02-23T09:20:35;4.22;;;0.80;;
72569;SDS011;60594;50.204;8.844;2024-02-23T09:23:20;3.40;;;0.82;;
72569;SDS011;60594;50.204;8.844;2024-02-23T09:26:11;3.67;;;0.70;;
72569;SDS011;60594;50.204;8.844;2024-02-23T09:28:56;3.50;;;0.85;;
72569;SDS011;60594;50.204;8.844;2024-02-23T09:31:41;4.15;;;0.85;;
72569;SDS011;60594;50.204;8.844;2024-02-23T09:34:27;3.20;;;0.75;;
72569;SDS011;60594;50.204;8.844;2024-02-23T09:37:11;3.35;;;0.88;;
72569;SDS011;60594;50.204;8.844;2024-02-23T09:39:57;2.13;;;0.60;;
72569;SDS011;60594;50.204;8.844;2024-02-23T09:42:41;2.03;;;0.70;;
72569;SDS011;60594;50.204;8.844;2024-02-23T09:45:27;4.22;;;0.90;;
72569;SDS011;60594;50.204;8.844;2024-02-23T09:48:12;4.50;;;0.98;;
72569;SDS011;60594;50.204;8.844;2024-02-23T09:50:59;4.70;;;0.73;;
72569;SDS011;60594;50.204;8.844;2024-02-23T09:53:45;2.67;;;0.60;;
72569;SDS011;60594;50.204;8.844;2024-02-23T09:56:31;3.20;;;0.73;;
72569;SDS011;60594;50.204;8.844;2024-02-23T09:59:17;4.07;;;1.15;;
72569;SDS011;60594;50.204;8.844;2024-02-23T10:02:07;4.55;;;0.70;;
72569;SDS011;60594;50.204;8.844;2024-02-23T10:04:54;4.35;;;0.88;;
72569;SDS011;60594;50.204;8.844;2024-02-23T10:07:41;6.63;;;0.93;;
72569;SDS011;60594;50.204;8.844;2024-02-23T10:10:30;2.85;;;0.50;;
72569;SDS011;60594;50.204;8.844;2024-02-23T10:13:18;2.85;;;0.65;;
72569;SDS011;60594;50.204;8.844;2024-02-23T10:16:08;7.68;;;1.00;;
72569;SDS011;60594;50.204;8.844;2024-02-23T10:18:53;7.95;;;1.05;;
72569;SDS011;60594;50.204;8.844;2024-02-23T10:21:38;2.40;;;0.50;;
72569;SDS011;60594;50.204;8.844;2024-02-23T10:24:23;3.38;;;0.63;;
72569;SDS011;60594;50.204;8.844;2024-02-23T10:27:09;2.20;;;0.70;;
72569;SDS011;60594;50.204;8.844;2024-02-23T10:29:54;2.08;;;0.82;;
72569;SDS011;60594;50.204;8.844;2024-02-23T10:32:39;2.72;;;0.70;;
72569;SDS011;60594;50.204;8.844;2024-02-23T10:35:25;4.15;;;1.20;;
72569;SDS011;60594;50.204;8.844;2024-02-23T10:38:12;3.53;;;0.85;;
72569;SDS011;60594;50.204;8.844;2024-02-23T10:41:00;1.80;;;0.43;;
72569;SDS011;60594;50.204;8.844;2024-02-23T10:43:48;4.20;;;0.90;;
72569;SDS011;60594;50.204;8.844;2024-02-23T10:46:33;3.13;;;0.50;;
72569;SDS011;60594;50.204;8.844;2024-02-23T10:49:19;3.38;;;0.77;;
72569;SDS011;60594;50.204;8.844;2024-02-23T10:52:10;3.15;;;1.10;;
72569;SDS011;60594;50.204;8.844;2024-02-23T10:54:58;3.85;;;0.80;;
72569;SDS011;60594;50.204;8.844;2024-02-23T11:00:30;3.53;;;1.13;;
72569;SDS011;60594;50.204;8.844;2024-02-23T11:03:16;2.05;;;0.95;;
72569;SDS011;60594;50.204;8.844;2024-02-23T11:06:02;2.97;;;0.60;;
72569;SDS011;60594;50.204;8.844;2024-02-23T11:08:50;4.22;;;1.02;;
72569;SDS011;60594;50.204;8.844;2024-02-23T11:11:36;2.25;;;0.70;;
72569;SDS011;60594;50.204;8.844;2024-02-23T11:17:36;6.40;;;1.27;;
72569;SDS011;60594;50.204;8.844;2024-02-23T11:20:24;1.60;;;0.63;;
72569;SDS011;60594;50.204;8.844;2024-02-23T11:23:19;1.17;;;0.50;;
72569;SDS011;60594;50.204;8.844;2024-02-23T11:26:04;3.25;;;0.90;;
72569;SDS011;60594;50.204;8.844;2024-02-23T11:31:43;2.72;;;0.80;;
72569;SDS011;60594;50.204;8.844;2024-02-23T11:34:30;3.45;;;0.70;;
72569;SDS011;60594;50.204;8.844;2024-02-23T11:37:15;5.68;;;1.00;;
72569;SDS011;60594;50.204;8.844;2024-02-23T11:40:03;2.72;;;0.90;;
72569;SDS011;60594;50.204;8.844;2024-02-23T11:42:49;4.38;;;0.90;;
72569;SDS011;60594;50.204;8.844;2024-02-23T11:45:35;3.25;;;0.70;;
72569;SDS011;60594;50.204;8.844;2024-02-23T11:48:20;2.72;;;1.05;;
72569;SDS011;60594;50.204;8.844;2024-02-23T11:51:05;2.08;;;0.55;;
72569;SDS011;60594;50.204;8.844;2024-02-23T11:53:51;6.70;;;0.70;;
72569;SDS011;60594;50.204;8.844;2024-02-23T11:56:37;1.42;;;0.60;;
72569;SDS011;60594;50.204;8.844;2024-02-23T11:59:22;2.40;;;1.00;;
72569;SDS011;60594;50.204;8.844;2024-02-23T12:02:07;2.45;;;0.68;;
72569;SDS011;60594;50.204;8.844;2024-02-23T12:04:52;1.85;;;0.70;;
72569;SDS011;60594;50.204;8.844;2024-02-23T12:07:37;4.30;;;0.70;;
72569;SDS011;60594;50.204;8.844;2024-02-23T12:10:22;4.05;;;0.95;;
72569;SDS011;60594;50.204;8.844;2024-02-23T12:13:07;2.15;;;0.93;;
72569;SDS011;60594;50.204;8.844;2024-02-23T12:15:53;3.13;;;0.75;;
72569;SDS011;60594;50.204;8.844;2024-02-23T12:18:38;4.22;;;1.10;;
72569;SDS011;60594;50.204;8.844;2024-02-23T12:21:23;6.05;;;1.20;;
72569;SDS011;60594;50.204;8.844;2024-02-23T12:24:09;1.63;;;0.75;;
72569;SDS011;60594;50.204;8.844;2024-02-23T12:26:55;2.28;;;0.70;;
72569;SDS011;60594;50.204;8.844;2024-02-23T12:29:40;3.38;;;0.88;;
72569;SDS011;60594;50.204;8.844;2024-02-23T12:32:25;4.65;;;1.23;;
72569;SDS011;60594;50.204;8.844;2024-02-23T12:35:14;1.92;;;0.85;;
72569;SDS011;60594;50.204;8.844;2024-02-23T12:37:59;3.28;;;0.82;;
72569;SDS011;60594;50.204;8.844;2024-02-23T12:40:44;3.25;;;0.80;;
72569;SDS011;60594;50.204;8.844;2024-02-23T12:43:29;3.85;;;1.58;;
72569;SDS011;60594;50.204;8.844;2024-02-23T12:46:14;1.63;;;0.60;;
72569;SDS011;60594;50.204;8.844;2024-02-23T12:48:59;3.33;;;1.33;;
72569;SDS011;60594;50.204;8.844;2024-02-23T12:51:44;2.08;;;0.68;;
72569;SDS011;60594;50.204;8.844;2024-02-23T12:54:29;2.55;;;1.00;;
72569;SDS011;60594;50.204;8.844;2024-02-23T12:57:14;3.10;;;0.70;;
72569;SDS011;60594;50.204;8.844;2024-02-23T12:59:59;1.05;;;0.57;;
72569;SDS011;60594;50.204;8.844;2024-02-23T13:02:44;4.75;;;1.00;;
72569;SDS011;60594;50.204;8.844;2024-02-23T13:05:29;4.72;;;1.30;;
72569;SDS011;60594;50.204;8.844;2024-02-23T13:08:14;3.70;;;0.90;;
72569;SDS011;60594;50.204;8.844;2024-02-23T13:10:59;2.05;;;0.70;;
72569;SDS011;60594;50.204;8.844;2024-02-23T13:13:44;4.13;;;0.88;;
72569;SDS011;60594;50.204;8.844;2024-02-23T13:16:29;2.78;;;0.80;;
72569;SDS011;60594;50.204;8.844;2024-02-23T13:19:14;2.17;;;0.70;;
72569;SDS011;60594;50.204;8.844;2024-02-23T13:21:59;3.30;;;1.10;;
72569;SDS011;60594;50.204;8.844;2024-02-23T13:24:45;2.95;;;1.02;;
72569;SDS011;60594;50.204;8.844;2024-02-23T13:27:30;3.30;;;0.95;;
72569;SDS011;60594;50.204;8.844;2024-02-23T13:30:15;3.03;;;0.90;;
72569;SDS011;60594;50.204;8.844;2024-02-23T13:33:00;2.78;;;0.93;;
72569;SDS011;60594;50.204;8.844;2024-02-23T13:35:46;3.60;;;1.20;;
72569;SDS011;60594;50.204;8.844;2024-02-23T13:38:31;3.85;;;1.08;;
72569;SDS011;60594;50.204;8.844;2024-02-23T13:41:15;2.22;;;0.73;;
72569;SDS011;60594;50.204;8.844;2024-02-23T13:44:00;3.38;;;0.80;;
72569;SDS011;60594;50.204;8.844;2024-02-23T13:46:45;3.15;;;0.80;;
72569;SDS011;60594;50.204;8.844;2024-02-23T13:49:30;3.67;;;0.90;;
72569;SDS011;60594;50.204;8.844;2024-02-23T13:52:15;4.28;;;1.08;;
72569;SDS011;60594;50.204;8.844;2024-02-23T13:55:00;3.25;;;1.23;;
72569;SDS011;60594;50.204;8.844;2024-02-23T13:57:48;7.07;;;1.10;;
72569;SDS011;60594;50.204;8.844;2024-02-23T14:00:34;2.42;;;0.80;;
72569;SDS011;60594;50.204;8.844;2024-02-23T14:03:19;3.95;;;0.90;;
72569;SDS011;60594;50.204;8.844;2024-02-23T14:06:04;2.33;;;0.90;;
72569;SDS011;60594;50.204;8.844;2024-02-23T14:08:49;3.53;;;1.02;;
72569;SDS011;60594;50.204;8.844;2024-02-23T14:11:34;4.70;;;1.08;;
72569;SDS011;60594;50.204;8.844;2024-02-23T14:14:19;2.50;;;1.00;;
72569;SDS011;60594;50.204;8.844;2024-02-23T14:17:04;3.92;;;0.80;;
72569;SDS011;60594;50.204;8.844;2024-02-23T14:19:49;3.55;;;0.77;;
72569;SDS011;60594;50.204;8.844;2024-02-23T14:22:35;5.05;;;1.13;;
72569;SDS011;60594;50.204;8.844;2024-02-23T14:25:20;3.25;;;1.30;;
72569;SDS011;60594;50.204;8.844;2024-02-23T14:28:05;3.67;;;0.80;;
72569;SDS011;60594;50.204;8.844;2024-02-23T14:30:50;2.58;;;1.13;;
72569;SDS011;60594;50.204;8.844;2024-02-23T14:33:35;3.53;;;1.10;;
72569;SDS011;60594;50.204;8.844;2024-02-23T14:36:20;6.25;;;1.30;;
72569;SDS011;60594;50.204;8.844;2024-02-23T14:39:07;2.33;;;0.70;;
72569;SDS011;60594;50.204;8.844;2024-02-23T14:41:52;4.22;;;1.40;;
72569;SDS011;60594;50.204;8.844;2024-02-23T14:44:37;3.88;;;0.90;;
72569;SDS011;60594;50.204;8.844;2024-02-23T14:47:22;2.35;;;0.75;;
72569;SDS011;60594;50.204;8.844;2024-02-23T14:50:07;2.95;;;1.05;;
72569;SDS011;60594;50.204;8.844;2024-02-23T14:52:52;6.18;;;1.23;;
72569;SDS011;60594;50.204;8.844;2024-02-23T14:55:38;3.90;;;0.93;;
72569;SDS011;60594;50.204;8.844;2024-02-23T14:58:23;2.03;;;0.75;;
72569;SDS011;60594;50.204;8.844;2024-02-23T15:01:08;4.05;;;1.23;;
72569;SDS011;60594;50.204;8.844;2024-02-23T15:03:53;3.25;;;0.93;;
72569;SDS011;60594;50.204;8.844;2024-02-23T15:06:38;4.68;;;1.35;;
72569;SDS011;60594;50.204;8.844;2024-02-23T15:09:23;3.72;;;1.38;;
72569;SDS011;60594;50.204;8.844;2024-02-23T15:12:08;14.95;;;4.38;;
72569;SDS011;60594;50.204;8.844;2024-02-23T15:14:53;10.85;;;4.10;;
72569;SDS011;60594;50.204;8.844;2024-02-23T15:17:39;7.47;;;2.95;;
72569;SDS011;60594;50.204;8.844;2024-02-23T15:20:26;4.13;;;1.20;;
72569;SDS011;60594;50.204;8.844;2024-02-23T15:23:11;2.72;;;1.20;;
72569;SDS011;60594;50.204;8.844;2024-02-23T15:25:56;3.03;;;0.80;;
72569;SDS011;60594;50.204;8.844;2024-02-23T15:28:41;2.67;;;0.82;;
72569;SDS011;60594;50.204;8.844;2024-02-23T15:31:26;3.42;;;1.27;;
72569;SDS011;60594;50.204;8.844;2024-02-23T15:34:11;3.35;;;1.23;;
72569;SDS011;60594;50.204;8.844;2024-02-23T15:36:56;1.80;;;0.88;;
72569;SDS011;60594;50.204;8.844;2024-02-23T15:39:42;3.30;;;1.20;;
72569;SDS011;60594;50.204;8.844;2024-02-23T15:42:27;2.75;;;0.90;;
72569;SDS011;60594;50.204;8.844;2024-02-23T15:45:13;3.17;;;1.00;;
72569;SDS011;60594;50.204;8.844;2024-02-23T15:47:58;3.05;;;1.00;;
72569;SDS011;60594;50.204;8.844;2024-02-23T15:50:42;3.88;;;1.00;;
72569;SDS011;60594;50.204;8.844;2024-02-23T15:53:27;2.08;;;0.73;;
72569;SDS011;60594;50.204;8.844;2024-02-23T15:56:13;3.10;;;0.88;;
72569;SDS011;60594;50.204;8.844;2024-02-23T15:58:57;2.85;;;0.73;;
72569;SDS011;60594;50.204;8.844;2024-02-23T16:01:42;1.60;;;0.70;;
72569;SDS011;60594;50.204;8.844;2024-02-23T16:04:27;1.58;;;0.63;;
72569;SDS011;60594;50.204;8.844;2024-02-23T16:07:13;3.63;;;0.98;;
72569;SDS011;60594;50.204;8.844;2024-02-23T16:09:59;3.15;;;0.95;;
72569;SDS011;60594;50.204;8.844;2024-02-23T16:12:51;3.17;;;0.95;;
72569;SDS011;60594;50.204;8.844;2024-02-23T16:15:36;3.67;;;1.10;;
72569;SDS011;60594;50.204;8.844;2024-02-23T16:18:22;3.95;;;1.00;;
72569;SDS011;60594;50.204;8.844;2024-02-23T16:21:06;2.88;;;0.82;;
72569;SDS011;60594;50.204;8.844;2024-02-23T16:23:52;3.08;;;0.98;;
72569;SDS011;60594;50.204;8.844;2024-02-23T16:26:37;3.70;;;0.90;;
72569;SDS011;60594;50.204;8.844;2024-02-23T16:29:23;3.70;;;1.00;;
72569;SDS011;60594;50.204;8.844;2024-02-23T16:32:08;1.65;;;0.80;;
72569;SDS011;60594;50.204;8.844;2024-02-23T16:34:53;2.90;;;0.90;;
72569;SDS011;60594;50.204;8.844;2024-02-23T16:37:38;5.13;;;0.90;;
72569;SDS011;60594;50.204;8.844;2024-02-23T16:40:23;2.78;;;1.00;;
72569;SDS011;60594;50.204;8.844;2024-02-23T16:43:12;3.15;;;0.90;;
72569;SDS011;60594;50.204;8.844;2024-02-23T16:45:57;5.05;;;1.13;;